sensor_id;sensor_type;location;lat;lon;timestamp;P1;durP1;ratioP1;P2;durP2;ratioP2
32323;SDS011;25666;44.350;9.222;2023-06-22T00:01:58;9.32;;;3.70;;
32323;SDS011;25666;44.350;9.222;2023-06-22T00:04:24;6.65;;;4.10;;
32323;SDS011;25666;44.350;9.222;2023-06-22T00:06:50;10.95;;;4.60;;
32323;SDS011;25666;44.350;9.222;2023-06-22T00:09:16;10.25;;;4.22;;
32323;SDS011;25666;44.350;9.222;2023-06-22T00:11:41;6.78;;;3.45;;
32323;SDS011;25666;44.350;9.222;2023-06-22T00:14:07;9.57;;;3.90;;
32323;SDS011;25666;44.350;9.222;2023-06-22T00:16:32;6.80;;;3.83;;
32323;SDS011;25666;44.350;9.222;2023-06-22T00:18:58;7.28;;;3.72;;
32323;SDS011;25666;44.350;9.222;2023-06-22T00:21:26;6.40;;;3.78;;
32323;SDS011;25666;44.350;9.222;2023-06-22T00:23:52;4.97;;;3.47;;
32323;SDS011;25666;44.350;9.222;2023-06-22T00:26:17;8.60;;;4.35;;
32323;SDS011;25666;44.350;9.222;2023-06-22T00:28:43;9.63;;;3.90;;
32323;SDS011;25666;44.350;9.222;2023-06-22T00:31:09;6.82;;;4.40;;
32323;SDS011;25666;44.350;9.222;2023-06-22T00:33:34;10.27;;;3.95;;
32323;SDS011;25666;44.350;9.222;2023-06-22T00:36:03;8.85;;;3.72;;
32323;SDS011;25666;44.350;9.222;2023-06-22T00:38:29;6.25;;;3.67;;
32323;SDS011;25666;44.350;9.222;2023-06-22T00:40:55;6.50;;;4.00;;
32323;SDS011;25666;44.350;9.222;2023-06-22T00:43:20;10.30;;;4.63;;
32323;SDS011;25666;44.350;9.222;2023-06-22T00:45:46;6.63;;;4.47;;
32323;SDS011;25666;44.350;9.222;2023-06-22T00:48:12;7.72;;;4.30;;
32323;SDS011;25666;44.350;9.222;2023-06-22T00:50:39;6.38;;;3.78;;
32323;SDS011;25666;44.350;9.222;2023-06-22T00:53:06;6.68;;;4.18;;
32323;SDS011;25666;44.350;9.222;2023-06-22T00:55:37;5.70;;;3.83;;
32323;SDS011;25666;44.350;9.222;2023-06-22T00:58:04;6.22;;;3.92;;
32323;SDS011;25666;44.350;9.222;2023-06-22T01:00:35;6.47;;;4.03;;
32323;SDS011;25666;44.350;9.222;2023-06-22T01:03:01;8.13;;;4.25;;
32323;SDS011;25666;44.350;9.222;2023-06-22T01:05:27;8.13;;;3.70;;
32323;SDS011;25666;44.350;9.222;2023-06-22T01:10:40;7.18;;;4.28;;
32323;SDS011;25666;44.350;9.222;2023-06-22T01:13:18;9.25;;;4.72;;
32323;SDS011;25666;44.350;9.222;2023-06-22T01:15:49;7.65;;;3.80;;
32323;SDS011;25666;44.350;9.222;2023-06-22T01:18:18;8.77;;;4.17;;
32323;SDS011;25666;44.350;9.222;2023-06-22T01:20:45;10.60;;;4.45;;
32323;SDS011;25666;44.350;9.222;2023-06-22T01:31:17;7.97;;;4.35;;
32323;SDS011;25666;44.350;9.222;2023-06-22T01:33:50;6.47;;;4.15;;
32323;SDS011;25666;44.350;9.222;2023-06-22T01:36:21;10.35;;;4.60;;
32323;SDS011;25666;44.350;9.222;2023-06-22T01:38:48;7.93;;;4.20;;
32323;SDS011;25666;44.350;9.222;2023-06-22T01:41:16;8.70;;;4.15;;
32323;SDS011;25666;44.350;9.222;2023-06-22T01:43:45;7.40;;;4.47;;
32323;SDS011;25666;44.350;9.222;2023-06-22T01:46:12;13.52;;;4.65;;
32323;SDS011;25666;44.350;9.222;2023-06-22T01:48:38;7.80;;;5.30;;
32323;SDS011;25666;44.350;9.222;2023-06-22T01:51:04;7.20;;;4.63;;
32323;SDS011;25666;44.350;9.222;2023-06-22T01:53:30;12.05;;;5.40;;
32323;SDS011;25666;44.350;9.222;2023-06-22T01:55:56;7.13;;;4.43;;
32323;SDS011;25666;44.350;9.222;2023-06-22T01:58:23;8.27;;;5.15;;
32323;SDS011;25666;44.350;9.222;2023-06-22T02:01:01;9.00;;;4.60;;
32323;SDS011;25666;44.350;9.222;2023-06-22T02:03:47;8.98;;;3.88;;
32323;SDS011;25666;44.350;9.222;2023-06-22T02:06:38;13.07;;;5.07;;
32323;SDS011;25666;44.350;9.222;2023-06-22T02:09:10;14.88;;;4.95;;
32323;SDS011;25666;44.350;9.222;2023-06-22T02:11:40;7.55;;;4.72;;
32323;SDS011;25666;44.350;9.222;2023-06-22T02:14:07;7.28;;;4.70;;
32323;SDS011;25666;44.350;9.222;2023-06-22T02:16:33;8.55;;;4.85;;
32323;SDS011;25666;44.350;9.222;2023-06-22T02:19:02;13.20;;;5.82;;
32323;SDS011;25666;44.350;9.222;2023-06-22T02:21:32;7.25;;;4.57;;
32323;SDS011;25666;44.350;9.222;2023-06-22T02:23:59;8.07;;;4.88;;
32323;SDS011;25666;44.350;9.222;2023-06-22T02:26:25;6.72;;;4.47;;
32323;SDS011;25666;44.350;9.222;2023-06-22T02:28:52;9.07;;;4.75;;
32323;SDS011;25666;44.350;9.222;2023-06-22T02:31:18;9.40;;;4.80;;
32323;SDS011;25666;44.350;9.222;2023-06-22T02:33:45;9.18;;;5.10;;
32323;SDS011;25666;44.350;9.222;2023-06-22T02:36:11;5.18;;;4.30;;
32323;SDS011;25666;44.350;9.222;2023-06-22T02:38:38;7.78;;;4.28;;
32323;SDS011;25666;44.350;9.222;2023-06-22T02:41:13;7.40;;;4.35;;
32323;SDS011;25666;44.350;9.222;2023-06-22T02:43:43;6.10;;;4.28;;
32323;SDS011;25666;44.350;9.222;2023-06-22T02:46:10;12.57;;;4.93;;
32323;SDS011;25666;44.350;9.222;2023-06-22T02:48:36;6.45;;;4.40;;
32323;SDS011;25666;44.350;9.222;2023-06-22T02:51:02;18.00;;;5.38;;
32323;SDS011;25666;44.350;9.222;2023-06-22T02:53:28;8.32;;;4.13;;
32323;SDS011;25666;44.350;9.222;2023-06-22T02:55:55;7.75;;;4.63;;
32323;SDS011;25666;44.350;9.222;2023-06-22T02:58:21;8.00;;;5.07;;
32323;SDS011;25666;44.350;9.222;2023-06-22T03:00:46;9.52;;;5.28;;
32323;SDS011;25666;44.350;9.222;2023-06-22T03:03:12;6.85;;;4.50;;
32323;SDS011;25666;44.350;9.222;2023-06-22T03:05:38;7.40;;;4.60;;
32323;SDS011;25666;44.350;9.222;2023-06-22T03:08:05;7.43;;;4.88;;
32323;SDS011;25666;44.350;9.222;2023-06-22T03:10:33;7.47;;;4.90;;
32323;SDS011;25666;44.350;9.222;2023-06-22T03:12:59;8.00;;;5.50;;
32323;SDS011;25666;44.350;9.222;2023-06-22T03:15:24;11.20;;;5.25;;
32323;SDS011;25666;44.350;9.222;2023-06-22T03:17:51;13.13;;;4.60;;
32323;SDS011;25666;44.350;9.222;2023-06-22T03:20:16;8.00;;;4.68;;
32323;SDS011;25666;44.350;9.222;2023-06-22T03:22:42;8.13;;;4.88;;
32323;SDS011;25666;44.350;9.222;2023-06-22T03:25:09;9.77;;;4.38;;
32323;SDS011;25666;44.350;9.222;2023-06-22T03:27:39;8.07;;;4.90;;
32323;SDS011;25666;44.350;9.222;2023-06-22T03:30:07;7.63;;;5.45;;
32323;SDS011;25666;44.350;9.222;2023-06-22T03:32:34;7.53;;;5.22;;
32323;SDS011;25666;44.350;9.222;2023-06-22T03:34:59;9.50;;;4.78;;
32323;SDS011;25666;44.350;9.222;2023-06-22T03:37:26;9.68;;;5.45;;
32323;SDS011;25666;44.350;9.222;2023-06-22T03:39:52;8.35;;;4.70;;
32323;SDS011;25666;44.350;9.222;2023-06-22T03:42:18;8.07;;;4.47;;
32323;SDS011;25666;44.350;9.222;2023-06-22T03:44:45;9.82;;;5.10;;
32323;SDS011;25666;44.350;9.222;2023-06-22T03:47:11;9.73;;;4.40;;
32323;SDS011;25666;44.350;9.222;2023-06-22T03:49:37;6.32;;;4.50;;
32323;SDS011;25666;44.350;9.222;2023-06-22T03:52:03;11.82;;;4.97;;
32323;SDS011;25666;44.350;9.222;2023-06-22T03:54:29;8.15;;;4.60;;
32323;SDS011;25666;44.350;9.222;2023-06-22T03:56:56;11.77;;;5.50;;
32323;SDS011;25666;44.350;9.222;2023-06-22T03:59:22;7.20;;;4.90;;
32323;SDS011;25666;44.350;9.222;2023-06-22T04:01:48;12.98;;;5.03;;
32323;SDS011;25666;44.350;9.222;2023-06-22T04:04:14;10.55;;;4.68;;
32323;SDS011;25666;44.350;9.222;2023-06-22T04:06:39;6.47;;;4.30;;
32323;SDS011;25666;44.350;9.222;2023-06-22T04:09:08;8.48;;;5.00;;
32323;SDS011;25666;44.350;9.222;2023-06-22T04:11:33;7.13;;;5.13;;
32323;SDS011;25666;44.350;9.222;2023-06-22T04:13:59;11.55;;;5.00;;
32323;SDS011;25666;44.350;9.222;2023-06-22T04:16:25;9.45;;;4.63;;
32323;SDS011;25666;44.350;9.222;2023-06-22T04:18:51;9.75;;;4.82;;
32323;SDS011;25666;44.350;9.222;2023-06-22T04:21:16;7.60;;;5.15;;
32323;SDS011;25666;44.350;9.222;2023-06-22T04:23:42;9.10;;;4.88;;
32323;SDS011;25666;44.350;9.222;2023-06-22T04:26:08;6.25;;;4.47;;
32323;SDS011;25666;44.350;9.222;2023-06-22T04:28:34;6.28;;;4.32;;
32323;SDS011;25666;44.350;9.222;2023-06-22T04:31:01;7.32;;;5.18;;
32323;SDS011;25666;44.350;9.222;2023-06-22T04:33:27;13.40;;;6.90;;
32323;SDS011;25666;44.350;9.222;2023-06-22T04:35:54;28.63;;;10.88;;
32323;SDS011;25666;44.350;9.222;2023-06-22T04:38:26;29.45;;;10.75;;
32323;SDS011;25666;44.350;9.222;2023-06-22T04:40:52;19.33;;;7.95;;
32323;SDS011;25666;44.350;9.222;2023-06-22T04:43:18;20.17;;;7.45;;
32323;SDS011;25666;44.350;9.222;2023-06-22T04:45:44;15.80;;;7.93;;
32323;SDS011;25666;44.350;9.222;2023-06-22T04:48:10;21.42;;;8.05;;
32323;SDS011;25666;44.350;9.222;2023-06-22T04:50:41;19.40;;;8.63;;
32323;SDS011;25666;44.350;9.222;2023-06-22T04:53:07;38.83;;;13.77;;
32323;SDS011;25666;44.350;9.222;2023-06-22T04:55:34;44.03;;;16.25;;
32323;SDS011;25666;44.350;9.222;2023-06-22T04:58:03;67.55;;;25.48;;
32323;SDS011;25666;44.350;9.222;2023-06-22T05:00:30;105.28;;;37.70;;
32323;SDS011;25666;44.350;9.222;2023-06-22T05:02:56;101.00;;;34.03;;
32323;SDS011;25666;44.350;9.222;2023-06-22T05:05:23;102.85;;;34.28;;
32323;SDS011;25666;44.350;9.222;2023-06-22T05:07:50;112.90;;;39.83;;
32323;SDS011;25666;44.350;9.222;2023-06-22T05:10:20;118.72;;;43.67;;
32323;SDS011;25666;44.350;9.222;2023-06-22T05:12:46;129.88;;;50.03;;
32323;SDS011;25666;44.350;9.222;2023-06-22T05:15:12;116.47;;;42.22;;
32323;SDS011;25666;44.350;9.222;2023-06-22T05:17:38;108.40;;;37.35;;
32323;SDS011;25666;44.350;9.222;2023-06-22T05:20:09;78.97;;;32.22;;
32323;SDS011;25666;44.350;9.222;2023-06-22T05:22:36;61.75;;;25.33;;
32323;SDS011;25666;44.350;9.222;2023-06-22T05:25:02;65.88;;;26.77;;
32323;SDS011;25666;44.350;9.222;2023-06-22T05:27:27;63.03;;;25.73;;
32323;SDS011;25666;44.350;9.222;2023-06-22T05:29:53;58.53;;;25.20;;
32323;SDS011;25666;44.350;9.222;2023-06-22T05:32:18;53.65;;;19.75;;
32323;SDS011;25666;44.350;9.222;2023-06-22T05:34:45;30.92;;;15.27;;
32323;SDS011;25666;44.350;9.222;2023-06-22T05:37:11;35.67;;;15.68;;
32323;SDS011;25666;44.350;9.222;2023-06-22T05:39:38;35.95;;;17.38;;
32323;SDS011;25666;44.350;9.222;2023-06-22T05:42:04;49.45;;;18.83;;
32323;SDS011;25666;44.350;9.222;2023-06-22T05:44:31;48.53;;;19.90;;
32323;SDS011;25666;44.350;9.222;2023-06-22T05:46:58;53.33;;;23.67;;
32323;SDS011;25666;44.350;9.222;2023-06-22T05:49:24;47.03;;;19.55;;
32323;SDS011;25666;44.350;9.222;2023-06-22T05:51:55;45.35;;;20.67;;
32323;SDS011;25666;44.350;9.222;2023-06-22T05:54:22;46.53;;;18.38;;
32323;SDS011;25666;44.350;9.222;2023-06-22T05:56:48;45.60;;;18.67;;
32323;SDS011;25666;44.350;9.222;2023-06-22T05:59:14;39.38;;;16.90;;
32323;SDS011;25666;44.350;9.222;2023-06-22T06:01:39;41.97;;;16.80;;
32323;SDS011;25666;44.350;9.222;2023-06-22T06:04:05;44.67;;;18.08;;
32323;SDS011;25666;44.350;9.222;2023-06-22T06:06:33;47.17;;;16.48;;
32323;SDS011;25666;44.350;9.222;2023-06-22T06:09:00;37.72;;;15.35;;
32323;SDS011;25666;44.350;9.222;2023-06-22T06:11:27;28.10;;;12.60;;
32323;SDS011;25666;44.350;9.222;2023-06-22T06:13:52;35.10;;;12.43;;
32323;SDS011;25666;44.350;9.222;2023-06-22T06:16:18;21.48;;;10.05;;
32323;SDS011;25666;44.350;9.222;2023-06-22T06:18:44;28.90;;;11.55;;
32323;SDS011;25666;44.350;9.222;2023-06-22T06:21:09;17.13;;;8.10;;
32323;SDS011;25666;44.350;9.222;2023-06-22T06:23:35;20.67;;;7.32;;
32323;SDS011;25666;44.350;9.222;2023-06-22T06:26:00;18.05;;;8.23;;
32323;SDS011;25666;44.350;9.222;2023-06-22T06:28:26;15.30;;;7.72;;
32323;SDS011;25666;44.350;9.222;2023-06-22T06:30:52;16.90;;;9.00;;
32323;SDS011;25666;44.350;9.222;2023-06-22T06:33:18;20.13;;;8.85;;
32323;SDS011;25666;44.350;9.222;2023-06-22T06:35:46;17.77;;;9.18;;
32323;SDS011;25666;44.350;9.222;2023-06-22T06:38:11;16.73;;;9.40;;
32323;SDS011;25666;44.350;9.222;2023-06-22T06:40:37;17.50;;;8.77;;
32323;SDS011;25666;44.350;9.222;2023-06-22T06:43:02;23.90;;;10.45;;
32323;SDS011;25666;44.350;9.222;2023-06-22T06:45:28;23.73;;;11.93;;
32323;SDS011;25666;44.350;9.222;2023-06-22T06:47:55;23.13;;;10.57;;
32323;SDS011;25666;44.350;9.222;2023-06-22T06:50:21;25.65;;;10.90;;
32323;SDS011;25666;44.350;9.222;2023-06-22T06:52:47;20.95;;;9.98;;
32323;SDS011;25666;44.350;9.222;2023-06-22T06:55:12;22.20;;;8.68;;
32323;SDS011;25666;44.350;9.222;2023-06-22T06:57:39;25.25;;;8.98;;
32323;SDS011;25666;44.350;9.222;2023-06-22T07:00:06;17.45;;;8.77;;
32323;SDS011;25666;44.350;9.222;2023-06-22T07:02:37;13.43;;;6.70;;
32323;SDS011;25666;44.350;9.222;2023-06-22T07:05:05;18.55;;;9.18;;
32323;SDS011;25666;44.350;9.222;2023-06-22T07:07:31;14.30;;;8.52;;
32323;SDS011;25666;44.350;9.222;2023-06-22T07:09:56;14.68;;;7.07;;
32323;SDS011;25666;44.350;9.222;2023-06-22T07:12:22;11.57;;;6.70;;
32323;SDS011;25666;44.350;9.222;2023-06-22T07:14:48;10.73;;;7.80;;
32323;SDS011;25666;44.350;9.222;2023-06-22T07:17:13;10.02;;;7.07;;
32323;SDS011;25666;44.350;9.222;2023-06-22T07:19:39;12.82;;;7.50;;
32323;SDS011;25666;44.350;9.222;2023-06-22T07:22:05;11.25;;;6.30;;
32323;SDS011;25666;44.350;9.222;2023-06-22T07:24:31;10.30;;;6.35;;
32323;SDS011;25666;44.350;9.222;2023-06-22T07:26:57;11.43;;;6.20;;
32323;SDS011;25666;44.350;9.222;2023-06-22T07:29:24;11.95;;;6.93;;
32323;SDS011;25666;44.350;9.222;2023-06-22T07:31:50;11.98;;;6.82;;
32323;SDS011;25666;44.350;9.222;2023-06-22T07:34:16;11.55;;;6.95;;
32323;SDS011;25666;44.350;9.222;2023-06-22T07:36:43;11.55;;;7.35;;
32323;SDS011;25666;44.350;9.222;2023-06-22T07:39:09;13.15;;;6.65;;
32323;SDS011;25666;44.350;9.222;2023-06-22T07:41:34;11.02;;;6.95;;
32323;SDS011;25666;44.350;9.222;2023-06-22T07:44:01;11.25;;;6.85;;
32323;SDS011;25666;44.350;9.222;2023-06-22T07:46:28;12.07;;;6.85;;
32323;SDS011;25666;44.350;9.222;2023-06-22T07:48:55;10.35;;;6.68;;
32323;SDS011;25666;44.350;9.222;2023-06-22T07:51:22;20.17;;;7.35;;
32323;SDS011;25666;44.350;9.222;2023-06-22T07:53:47;18.85;;;7.88;;
32323;SDS011;25666;44.350;9.222;2023-06-22T07:56:13;16.33;;;7.93;;
32323;SDS011;25666;44.350;9.222;2023-06-22T08:01:09;15.60;;;6.75;;
32323;SDS011;25666;44.350;9.222;2023-06-22T08:03:35;11.82;;;7.10;;
32323;SDS011;25666;44.350;9.222;2023-06-22T08:06:01;13.05;;;6.43;;
32323;SDS011;25666;44.350;9.222;2023-06-22T08:08:26;13.85;;;6.68;;
32323;SDS011;25666;44.350;9.222;2023-06-22T08:10:52;15.63;;;6.15;;
32323;SDS011;25666;44.350;9.222;2023-06-22T08:13:17;12.40;;;6.57;;
32323;SDS011;25666;44.350;9.222;2023-06-22T08:15:44;13.68;;;6.55;;
32323;SDS011;25666;44.350;9.222;2023-06-22T08:18:10;13.23;;;6.60;;
32323;SDS011;25666;44.350;9.222;2023-06-22T08:20:35;11.95;;;5.82;;
32323;SDS011;25666;44.350;9.222;2023-06-22T08:23:01;12.35;;;6.97;;
32323;SDS011;25666;44.350;9.222;2023-06-22T08:25:32;12.40;;;6.38;;
32323;SDS011;25666;44.350;9.222;2023-06-22T08:27:58;12.20;;;6.63;;
32323;SDS011;25666;44.350;9.222;2023-06-22T08:30:23;12.60;;;6.63;;
32323;SDS011;25666;44.350;9.222;2023-06-22T08:32:49;16.10;;;7.43;;
32323;SDS011;25666;44.350;9.222;2023-06-22T08:35:14;16.70;;;7.70;;
32323;SDS011;25666;44.350;9.222;2023-06-22T08:37:40;12.77;;;6.90;;
32323;SDS011;25666;44.350;9.222;2023-06-22T08:40:07;17.85;;;7.00;;
32323;SDS011;25666;44.350;9.222;2023-06-22T08:42:34;13.10;;;6.85;;
32323;SDS011;25666;44.350;9.222;2023-06-22T08:45:00;21.55;;;6.47;;
32323;SDS011;25666;44.350;9.222;2023-06-22T08:47:29;14.23;;;6.53;;
32323;SDS011;25666;44.350;9.222;2023-06-22T08:49:55;12.63;;;6.70;;
32323;SDS011;25666;44.350;9.222;2023-06-22T08:52:21;37.38;;;7.80;;
32323;SDS011;25666;44.350;9.222;2023-06-22T08:54:48;19.85;;;6.40;;
32323;SDS011;25666;44.350;9.222;2023-06-22T08:57:14;8.65;;;5.97;;
32323;SDS011;25666;44.350;9.222;2023-06-22T08:59:40;10.68;;;5.65;;
32323;SDS011;25666;44.350;9.222;2023-06-22T09:02:05;8.63;;;5.30;;
32323;SDS011;25666;44.350;9.222;2023-06-22T09:04:31;7.53;;;4.30;;
32323;SDS011;25666;44.350;9.222;2023-06-22T09:07:00;14.48;;;5.28;;
32323;SDS011;25666;44.350;9.222;2023-06-22T09:09:26;12.25;;;5.00;;
32323;SDS011;25666;44.350;9.222;2023-06-22T09:11:51;12.75;;;6.47;;
32323;SDS011;25666;44.350;9.222;2023-06-22T09:14:17;15.02;;;6.63;;
32323;SDS011;25666;44.350;9.222;2023-06-22T09:16:42;10.48;;;4.45;;
32323;SDS011;25666;44.350;9.222;2023-06-22T09:19:08;14.18;;;6.00;;
32323;SDS011;25666;44.350;9.222;2023-06-22T09:21:34;9.15;;;5.10;;
32323;SDS011;25666;44.350;9.222;2023-06-22T09:24:00;11.90;;;5.25;;
32323;SDS011;25666;44.350;9.222;2023-06-22T09:26:25;13.48;;;5.45;;
32323;SDS011;25666;44.350;9.222;2023-06-22T09:28:51;9.90;;;4.85;;
32323;SDS011;25666;44.350;9.222;2023-06-22T09:31:17;11.70;;;5.30;;
32323;SDS011;25666;44.350;9.222;2023-06-22T09:33:42;11.23;;;4.90;;
32323;SDS011;25666;44.350;9.222;2023-06-22T09:36:08;7.78;;;4.97;;
32323;SDS011;25666;44.350;9.222;2023-06-22T09:38:34;12.77;;;4.78;;
32323;SDS011;25666;44.350;9.222;2023-06-22T09:41:01;9.90;;;5.15;;
32323;SDS011;25666;44.350;9.222;2023-06-22T09:43:27;9.77;;;5.80;;
32323;SDS011;25666;44.350;9.222;2023-06-22T09:45:52;8.05;;;5.15;;
32323;SDS011;25666;44.350;9.222;2023-06-22T09:48:18;9.80;;;4.72;;
32323;SDS011;25666;44.350;9.222;2023-06-22T09:50:44;7.20;;;3.97;;
32323;SDS011;25666;44.350;9.222;2023-06-22T09:53:09;9.57;;;4.05;;
32323;SDS011;25666;44.350;9.222;2023-06-22T09:55:35;5.75;;;3.90;;
32323;SDS011;25666;44.350;9.222;2023-06-22T09:58:00;5.97;;;3.90;;
32323;SDS011;25666;44.350;9.222;2023-06-22T10:00:26;6.97;;;3.55;;
32323;SDS011;25666;44.350;9.222;2023-06-22T10:02:52;8.60;;;3.80;;
32323;SDS011;25666;44.350;9.222;2023-06-22T10:05:17;10.05;;;3.78;;
32323;SDS011;25666;44.350;9.222;2023-06-22T10:07:43;8.43;;;3.53;;
32323;SDS011;25666;44.350;9.222;2023-06-22T10:10:09;7.47;;;3.72;;
32323;SDS011;25666;44.350;9.222;2023-06-22T10:12:40;6.40;;;3.15;;
32323;SDS011;25666;44.350;9.222;2023-06-22T10:15:07;5.28;;;3.83;;
32323;SDS011;25666;44.350;9.222;2023-06-22T10:17:33;8.20;;;3.90;;
32323;SDS011;25666;44.350;9.222;2023-06-22T10:19:58;5.10;;;3.55;;
32323;SDS011;25666;44.350;9.222;2023-06-22T10:22:24;4.72;;;3.63;;
32323;SDS011;25666;44.350;9.222;2023-06-22T10:24:49;5.03;;;3.60;;
32323;SDS011;25666;44.350;9.222;2023-06-22T10:27:15;9.93;;;4.25;;
32323;SDS011;25666;44.350;9.222;2023-06-22T10:29:41;7.35;;;3.17;;
32323;SDS011;25666;44.350;9.222;2023-06-22T10:32:06;7.55;;;3.65;;
32323;SDS011;25666;44.350;9.222;2023-06-22T10:34:33;8.75;;;4.20;;
32323;SDS011;25666;44.350;9.222;2023-06-22T10:36:58;6.32;;;3.60;;
32323;SDS011;25666;44.350;9.222;2023-06-22T10:39:24;10.93;;;4.30;;
32323;SDS011;25666;44.350;9.222;2023-06-22T10:41:50;5.50;;;4.13;;
32323;SDS011;25666;44.350;9.222;2023-06-22T10:44:16;6.90;;;3.65;;
32323;SDS011;25666;44.350;9.222;2023-06-22T10:46:42;6.75;;;3.95;;
32323;SDS011;25666;44.350;9.222;2023-06-22T10:49:08;5.10;;;3.78;;
32323;SDS011;25666;44.350;9.222;2023-06-22T10:51:33;9.80;;;3.70;;
32323;SDS011;25666;44.350;9.222;2023-06-22T10:53:59;10.13;;;3.50;;
32323;SDS011;25666;44.350;9.222;2023-06-22T10:56:24;7.22;;;3.63;;
32323;SDS011;25666;44.350;9.222;2023-06-22T10:58:50;5.55;;;3.40;;
32323;SDS011;25666;44.350;9.222;2023-06-22T11:01:15;4.35;;;2.85;;
32323;SDS011;25666;44.350;9.222;2023-06-22T11:03:41;8.48;;;3.33;;
32323;SDS011;25666;44.350;9.222;2023-06-22T11:06:06;6.43;;;3.17;;
32323;SDS011;25666;44.350;9.222;2023-06-22T11:08:32;7.05;;;3.55;;
32323;SDS011;25666;44.350;9.222;2023-06-22T11:10:58;8.68;;;3.72;;
32323;SDS011;25666;44.350;9.222;2023-06-22T11:13:23;7.45;;;3.03;;
32323;SDS011;25666;44.350;9.222;2023-06-22T11:15:50;7.45;;;3.50;;
32323;SDS011;25666;44.350;9.222;2023-06-22T11:18:15;6.80;;;3.65;;
32323;SDS011;25666;44.350;9.222;2023-06-22T11:20:41;7.32;;;3.95;;
32323;SDS011;25666;44.350;9.222;2023-06-22T11:23:07;8.23;;;3.60;;
32323;SDS011;25666;44.350;9.222;2023-06-22T11:25:33;6.07;;;3.75;;
32323;SDS011;25666;44.350;9.222;2023-06-22T11:28:03;7.45;;;3.03;;
32323;SDS011;25666;44.350;9.222;2023-06-22T11:30:29;7.00;;;4.03;;
32323;SDS011;25666;44.350;9.222;2023-06-22T11:32:56;7.20;;;3.55;;
32323;SDS011;25666;44.350;9.222;2023-06-22T11:35:23;7.15;;;4.18;;
32323;SDS011;25666;44.350;9.222;2023-06-22T11:37:49;3.90;;;3.40;;
32323;SDS011;25666;44.350;9.222;2023-06-22T11:40:14;4.90;;;3.47;;
32323;SDS011;25666;44.350;9.222;2023-06-22T11:42:40;8.38;;;4.05;;
32323;SDS011;25666;44.350;9.222;2023-06-22T11:45:06;5.32;;;3.83;;
32323;SDS011;25666;44.350;9.222;2023-06-22T11:47:32;14.10;;;3.67;;
32323;SDS011;25666;44.350;9.222;2023-06-22T11:49:57;8.18;;;3.90;;
32323;SDS011;25666;44.350;9.222;2023-06-22T11:52:23;6.72;;;3.50;;
32323;SDS011;25666;44.350;9.222;2023-06-22T11:54:48;4.85;;;3.20;;
32323;SDS011;25666;44.350;9.222;2023-06-22T11:57:14;6.38;;;3.22;;
32323;SDS011;25666;44.350;9.222;2023-06-22T11:59:39;5.75;;;3.95;;
32323;SDS011;25666;44.350;9.222;2023-06-22T12:02:05;5.55;;;3.10;;
32323;SDS011;25666;44.350;9.222;2023-06-22T12:04:32;5.40;;;3.13;;
32323;SDS011;25666;44.350;9.222;2023-06-22T12:06:58;7.53;;;3.25;;
32323;SDS011;25666;44.350;9.222;2023-06-22T12:09:23;4.88;;;3.45;;
32323;SDS011;25666;44.350;9.222;2023-06-22T12:11:49;6.72;;;3.28;;
32323;SDS011;25666;44.350;9.222;2023-06-22T12:14:15;4.60;;;3.10;;
32323;SDS011;25666;44.350;9.222;2023-06-22T12:16:40;5.57;;;3.22;;
32323;SDS011;25666;44.350;9.222;2023-06-22T12:19:06;5.90;;;4.03;;
32323;SDS011;25666;44.350;9.222;2023-06-22T12:21:31;6.45;;;3.72;;
32323;SDS011;25666;44.350;9.222;2023-06-22T12:23:57;6.15;;;3.28;;
32323;SDS011;25666;44.350;9.222;2023-06-22T12:26:22;5.47;;;3.72;;
32323;SDS011;25666;44.350;9.222;2023-06-22T12:28:48;6.22;;;3.30;;
32323;SDS011;25666;44.350;9.222;2023-06-22T12:31:14;11.02;;;3.85;;
32323;SDS011;25666;44.350;9.222;2023-06-22T12:33:40;10.52;;;3.53;;
32323;SDS011;25666;44.350;9.222;2023-06-22T12:36:05;4.80;;;3.75;;
32323;SDS011;25666;44.350;9.222;2023-06-22T12:38:31;5.78;;;3.70;;
32323;SDS011;25666;44.350;9.222;2023-06-22T12:40:56;10.32;;;4.20;;
32323;SDS011;25666;44.350;9.222;2023-06-22T12:43:22;5.13;;;3.58;;
32323;SDS011;25666;44.350;9.222;2023-06-22T12:45:47;8.43;;;3.65;;
32323;SDS011;25666;44.350;9.222;2023-06-22T12:48:13;7.85;;;3.28;;
32323;SDS011;25666;44.350;9.222;2023-06-22T12:50:39;7.95;;;3.33;;
32323;SDS011;25666;44.350;9.222;2023-06-22T12:53:04;6.38;;;4.05;;
32323;SDS011;25666;44.350;9.222;2023-06-22T12:55:31;6.00;;;3.47;;
32323;SDS011;25666;44.350;9.222;2023-06-22T12:57:57;7.32;;;3.60;;
32323;SDS011;25666;44.350;9.222;2023-06-22T13:00:23;7.40;;;3.35;;
32323;SDS011;25666;44.350;9.222;2023-06-22T13:02:48;8.65;;;3.72;;
32323;SDS011;25666;44.350;9.222;2023-06-22T13:05:14;7.45;;;3.85;;
32323;SDS011;25666;44.350;9.222;2023-06-22T13:07:39;4.80;;;3.17;;
32323;SDS011;25666;44.350;9.222;2023-06-22T13:10:07;7.07;;;3.42;;
32323;SDS011;25666;44.350;9.222;2023-06-22T13:12:33;7.93;;;4.40;;
32323;SDS011;25666;44.350;9.222;2023-06-22T13:14:58;7.32;;;3.60;;
32323;SDS011;25666;44.350;9.222;2023-06-22T13:17:24;7.07;;;3.42;;
32323;SDS011;25666;44.350;9.222;2023-06-22T13:19:50;3.83;;;3.00;;
32323;SDS011;25666;44.350;9.222;2023-06-22T13:25:10;6.15;;;3.35;;
32323;SDS011;25666;44.350;9.222;2023-06-22T13:27:40;5.53;;;3.42;;
32323;SDS011;25666;44.350;9.222;2023-06-22T13:30:07;5.47;;;3.63;;
32323;SDS011;25666;44.350;9.222;2023-06-22T13:32:33;5.90;;;3.05;;
32323;SDS011;25666;44.350;9.222;2023-06-22T13:34:59;3.33;;;2.90;;
32323;SDS011;25666;44.350;9.222;2023-06-22T13:37:25;8.90;;;3.72;;
32323;SDS011;25666;44.350;9.222;2023-06-22T13:39:51;6.22;;;4.18;;
32323;SDS011;25666;44.350;9.222;2023-06-22T13:42:17;8.32;;;3.90;;
32323;SDS011;25666;44.350;9.222;2023-06-22T13:44:42;4.18;;;3.78;;
32323;SDS011;25666;44.350;9.222;2023-06-22T13:47:08;8.10;;;3.80;;
32323;SDS011;25666;44.350;9.222;2023-06-22T13:49:34;5.95;;;3.30;;
32323;SDS011;25666;44.350;9.222;2023-06-22T13:51:59;5.55;;;3.20;;
32323;SDS011;25666;44.350;9.222;2023-06-22T13:54:25;6.38;;;3.63;;
32323;SDS011;25666;44.350;9.222;2023-06-22T13:56:51;6.78;;;3.70;;
32323;SDS011;25666;44.350;9.222;2023-06-22T13:59:16;5.82;;;4.45;;
32323;SDS011;25666;44.350;9.222;2023-06-22T14:01:42;6.10;;;3.80;;
32323;SDS011;25666;44.350;9.222;2023-06-22T14:04:08;6.05;;;3.40;;
32323;SDS011;25666;44.350;9.222;2023-06-22T14:06:34;8.52;;;3.83;;
32323;SDS011;25666;44.350;9.222;2023-06-22T14:08:59;8.93;;;4.10;;
32323;SDS011;25666;44.350;9.222;2023-06-22T14:11:25;7.65;;;4.13;;
32323;SDS011;25666;44.350;9.222;2023-06-22T14:13:51;4.88;;;3.83;;
32323;SDS011;25666;44.350;9.222;2023-06-22T14:16:17;6.65;;;3.75;;
32323;SDS011;25666;44.350;9.222;2023-06-22T14:18:42;6.65;;;4.35;;
32323;SDS011;25666;44.350;9.222;2023-06-22T14:21:08;9.15;;;3.95;;
32323;SDS011;25666;44.350;9.222;2023-06-22T14:23:33;12.57;;;4.15;;
32323;SDS011;25666;44.350;9.222;2023-06-22T14:25:59;6.70;;;3.90;;
32323;SDS011;25666;44.350;9.222;2023-06-22T14:28:24;5.97;;;4.13;;
32323;SDS011;25666;44.350;9.222;2023-06-22T14:30:50;7.95;;;3.97;;
32323;SDS011;25666;44.350;9.222;2023-06-22T14:33:16;3.90;;;2.97;;
32323;SDS011;25666;44.350;9.222;2023-06-22T14:35:41;11.38;;;3.40;;
32323;SDS011;25666;44.350;9.222;2023-06-22T14:38:07;6.88;;;4.13;;
32323;SDS011;25666;44.350;9.222;2023-06-22T14:40:32;4.20;;;3.53;;
32323;SDS011;25666;44.350;9.222;2023-06-22T14:42:58;4.78;;;3.60;;
32323;SDS011;25666;44.350;9.222;2023-06-22T14:45:23;6.10;;;3.65;;
32323;SDS011;25666;44.350;9.222;2023-06-22T14:47:49;7.65;;;4.30;;
32323;SDS011;25666;44.350;9.222;2023-06-22T14:50:15;7.53;;;4.05;;
32323;SDS011;25666;44.350;9.222;2023-06-22T14:52:40;11.27;;;3.97;;